createdAt,value
2023-05-21T00:00:46.355Z,100061.31
2023-05-21T00:01:50.447Z,100065.88
2023-05-21T00:02:53.166Z,100051.59
2023-05-21T00:03:55.908Z,100062.34
2023-05-21T00:04:58.708Z,100066.84
2023-05-21T00:06:04.206Z,100060.63
2023-05-21T00:07:07.375Z,100055.28
2023-05-21T00:08:10.079Z,100048.22
2023-05-21T00:09:13.459Z,100041.16
2023-05-21T00:10:16.133Z,100045.97
2023-05-21T00:11:18.804Z,100042.16
2023-05-21T00:12:21.494Z,100053.03
2023-05-21T00:13:24.197Z,100039.75
2023-05-21T00:14:27.146Z,100045.97
2023-05-21T00:15:29.884Z,100045.13
2023-05-21T00:16:32.692Z,100048.78
2023-05-21T00:17:37.361Z,100047.09
2023-05-21T00:18:39.999Z,100045.41
2023-05-21T00:19:42.659Z,100043.72
2023-05-21T00:20:46.258Z,100044.69
2023-05-21T00:21:48.566Z,100044.00
2023-05-21T00:22:51.484Z,100044.00
2023-05-21T00:23:54.921Z,100042.44
2023-05-21T00:24:57.574Z,100050.34
2023-05-21T00:26:00.688Z,100039.63
2023-05-21T00:27:03.416Z,100047.66
2023-05-21T00:28:06.205Z,100053.88
2023-05-21T00:29:08.851Z,100041.75
2023-05-21T00:30:11.640Z,100044.56
2023-05-21T00:31:14.412Z,100049.09
2023-05-21T00:32:17.059Z,100049.09
2023-05-21T00:33:22.290Z,100049.25
2023-05-21T00:34:24.950Z,100038.38
2023-05-21T00:35:27.663Z,100034.84
2023-05-21T00:36:31.798Z,100033.19
2023-05-21T00:37:34.925Z,100028.81
2023-05-21T00:38:38.673Z,100028.81
2023-05-21T00:39:41.609Z,100035.84
2023-05-21T00:40:44.426Z,100042.06
2023-05-21T00:41:49.117Z,100039.53
2023-05-21T00:42:51.877Z,100040.50
2023-05-21T00:43:54.603Z,100046.72
2023-05-21T00:44:58.268Z,100036.09
2023-05-21T00:46:01.139Z,100042.47
2023-05-21T00:47:05.510Z,100042.47
2023-05-21T00:48:08.978Z,100039.78
2023-05-21T00:49:15.455Z,100039.78
2023-05-21T00:50:18.192Z,100042.47
2023-05-21T00:51:22.087Z,100037.09
2023-05-21T00:52:27.410Z,100032.72
2023-05-21T00:53:30.746Z,100036.41
2023-05-21T00:54:33.494Z,100032.03
2023-05-21T00:55:38.334Z,100031.31
2023-05-21T00:56:41.314Z,100026.66
2023-05-21T00:57:44.139Z,100033.00
2023-05-21T00:58:48.392Z,100031.31
2023-05-21T00:59:53.669Z,100027.94
2023-05-21T01:00:57.147Z,100034.13
2023-05-21T01:02:04.808Z,100030.59
2023-05-21T01:03:07.804Z,100027.94
2023-05-21T01:04:10.605Z,100025.38
2023-05-21T01:05:13.664Z,100022.00
2023-05-21T01:06:16.611Z,100024.53
2023-05-21T01:07:19.310Z,100029.91
2023-05-21T01:08:24.729Z,100027.38
2023-05-21T01:09:28.171Z,100023.84
2023-05-21T01:10:31.556Z,100027.38
2023-05-21T01:11:48.332Z,100020.47
2023-05-21T01:12:53.234Z,100023.13
2023-05-21T01:13:56.557Z,100023.13
2023-05-21T01:15:02.803Z,100018.75
2023-05-21T01:16:09.878Z,100022.28
2023-05-21T01:17:13.570Z,100016.94
2023-05-21T01:18:16.564Z,100019.75
2023-05-21T01:19:24.868Z,100023.41
2023-05-21T01:20:30.958Z,100016.22
2023-05-21T01:21:42.081Z,100017.22
2023-05-21T01:22:55.406Z,100020.75
2023-05-21T01:23:58.946Z,100023.41
2023-05-21T01:25:03.210Z,100021.72
2023-05-21T01:26:07.836Z,100020.75
2023-05-21T01:27:11.053Z,100013.69
2023-05-21T01:28:14.696Z,100016.38
2023-05-21T01:29:17.405Z,100020.88
2023-05-21T01:30:21.747Z,100014.72
2023-05-21T01:31:32.631Z,100015.69
2023-05-21T01:34:47.997Z,100009.47
2023-05-21T01:35:59.269Z,100006.94
2023-05-21T01:37:22.460Z,100011.31
2023-05-21T01:39:02.178Z,100009.63
2023-05-21T01:40:12.562Z,100007.94
2023-05-21T01:41:19.441Z,100003.56
2023-05-21T01:42:24.730Z,100000.88
2023-05-21T01:43:30.035Z,100005.41
2023-05-21T01:44:34.331Z,100005.41
2023-05-21T01:45:41.229Z,99997.50
2023-05-21T01:46:44.118Z,99994.81
2023-05-21T01:47:50.092Z,99996.66
2023-05-21T01:48:55.657Z,99989.59
2023-05-21T01:49:59.264Z,99987.34
2023-05-21T01:51:04.844Z,99983.09
2023-05-21T01:52:07.725Z,99986.53
2023-05-21T01:53:10.389Z,99982.53
2023-05-21T01:54:13.131Z,99983.25
2023-05-21T01:55:15.859Z,99977.75
2023-05-21T01:56:18.541Z,99978.59
2023-05-21T01:57:22.142Z,99972.38
2023-05-21T01:58:24.844Z,99974.09
2023-05-21T01:59:28.398Z,99972.25
2023-05-21T02:00:32.838Z,99972.25
2023-05-21T02:01:35.595Z,99973.94
2023-05-21T02:02:38.345Z,99970.41
2023-05-21T02:03:41.220Z,99978.44
2023-05-21T02:04:44.721Z,99975.78
2023-05-21T02:05:47.796Z,99965.06
2023-05-21T02:06:50.462Z,99969.56
2023-05-21T02:07:53.325Z,99965.19
2023-05-21T02:08:56.184Z,99961.66
2023-05-21T02:09:58.869Z,99960.81
2023-05-21T02:11:01.529Z,99955.47
2023-05-21T02:12:04.604Z,99963.34
2023-05-21T02:13:07.320Z,99950.09
2023-05-21T02:14:10.951Z,99958.84
2023-05-21T02:15:18.429Z,99961.53
2023-05-21T02:16:22.950Z,99960.81
2023-05-21T02:17:25.794Z,99964.50
2023-05-21T02:18:29.789Z,99959.13
2023-05-21T02:19:32.627Z,99965.34
2023-05-21T02:20:35.348Z,99965.34
2023-05-21T02:21:38.058Z,99959.13
2023-05-21T02:22:45.454Z,99955.47
2023-05-21T02:23:48.112Z,99960.97
2023-05-21T02:24:50.739Z,99955.59
2023-05-21T02:25:53.362Z,99953.78
2023-05-21T02:26:56.246Z,99963.50
2023-05-21T02:27:58.955Z,99953.91
2023-05-21T02:29:01.691Z,99955.75
2023-05-21T02:30:05.823Z,99953.06
2023-05-21T02:31:08.481Z,99959.13
2023-05-21T02:32:12.315Z,99955.75
2023-05-21T02:33:16.813Z,99952.38
2023-05-21T02:34:21.064Z,99956.03
2023-05-21T02:35:23.840Z,99956.03
2023-05-21T02:36:27.064Z,99952.69
2023-05-21T02:37:29.922Z,99962.56
2023-05-21T02:38:33.169Z,99963.13
2023-05-21T02:39:35.854Z,99962.00
2023-05-21T02:40:38.477Z,99958.31
2023-05-21T02:41:41.174Z,99959.16
2023-05-21T02:42:43.916Z,99957.91
2023-05-21T02:43:46.609Z,99957.47
2023-05-21T02:44:49.362Z,99952.13
2023-05-21T02:45:52.192Z,99958.47
2023-05-21T02:46:55.081Z,99960.91
2023-05-21T02:47:58.186Z,99956.06
2023-05-21T02:49:00.862Z,99953.00
2023-05-21T02:50:03.617Z,99949.00
2023-05-21T02:51:06.394Z,99947.88
2023-05-21T02:52:09.254Z,99942.38
2023-05-21T02:53:11.998Z,99940.69
2023-05-21T02:54:15.510Z,99939.00
2023-05-21T02:55:18.185Z,99941.41
2023-05-21T02:56:20.871Z,99936.31
2023-05-21T02:57:23.521Z,99943.50
2023-05-21T02:58:26.216Z,99938.03
2023-05-21T02:59:28.928Z,99935.34
2023-05-21T03:00:31.685Z,99931.94
2023-05-21T03:01:34.380Z,99929.28
2023-05-21T03:02:37.249Z,99917.72
2023-05-21T03:03:40.033Z,99922.22
2023-05-21T03:04:46.756Z,99918.84
2023-05-21T03:05:49.548Z,99925.22
2023-05-21T03:06:55.687Z,99921.53
2023-05-21T03:07:58.441Z,99926.88
2023-05-21T03:09:01.128Z,99925.03
2023-05-21T03:10:03.840Z,99921.38
2023-05-21T03:11:09.805Z,99924.19
2023-05-21T03:12:12.595Z,99924.50
2023-05-21T03:13:15.247Z,99923.81
2023-05-21T03:14:17.925Z,99920.28
2023-05-21T03:15:24.466Z,99914.09
2023-05-21T03:16:27.155Z,99917.47
2023-05-21T03:17:29.881Z,99921.28
2023-05-21T03:18:32.590Z,99916.91
2023-05-21T03:19:36.531Z,99916.34
2023-05-21T03:20:59.174Z,99918.88
2023-05-21T03:22:02.839Z,99914.66
2023-05-21T03:23:06.306Z,99903.78
2023-05-21T03:24:08.960Z,99904.78
2023-05-21T03:25:12.898Z,99909.56
2023-05-21T03:26:15.969Z,99907.88
2023-05-21T03:27:18.796Z,99917.75
2023-05-21T03:28:21.548Z,99921.69
2023-05-21T03:29:24.211Z,99924.81
2023-05-21T03:30:26.857Z,99921.84
2023-05-21T03:31:29.552Z,99917.50
2023-05-21T03:32:34.466Z,99924.53
2023-05-21T03:33:37.167Z,99915.22
2023-05-21T03:34:39.839Z,99924.53
2023-05-21T03:35:42.613Z,99923.28
2023-05-21T03:36:45.264Z,99921.56
2023-05-21T03:37:47.999Z,99925.09
2023-05-21T03:38:50.671Z,99927.50
2023-05-21T03:39:53.414Z,99924.81
2023-05-21T03:40:56.339Z,99916.63
2023-05-21T03:41:58.986Z,99907.75
2023-05-21T03:43:01.614Z,99903.97
2023-05-21T03:44:04.472Z,99904.66
2023-05-21T03:45:07.681Z,99901.72
2023-05-21T03:46:10.427Z,99897.19
2023-05-21T03:47:13.215Z,99899.72
2023-05-21T03:48:16.466Z,99888.19
2023-05-21T03:49:20.917Z,99886.06
2023-05-21T03:50:23.569Z,99883.09
2023-05-21T03:51:26.450Z,99884.78
2023-05-21T03:52:29.262Z,99871.53
2023-05-21T03:53:34.533Z,99877.59
2023-05-21T03:54:37.214Z,99874.22
2023-05-21T03:55:40.309Z,99872.41
2023-05-21T03:56:42.973Z,99872.41
2023-05-21T03:57:45.760Z,99880.56
2023-05-21T03:58:48.536Z,99879.84
2023-05-21T03:59:51.488Z,99878.59
2023-05-21T04:00:54.248Z,99879.16
2023-05-21T04:01:56.881Z,99880.84
2023-05-21T04:02:59.952Z,99888.75
2023-05-21T04:04:02.961Z,99878.03
2023-05-21T04:05:06.101Z,99877.88
2023-05-21T04:06:10.643Z,99878.72
2023-05-21T04:07:15.902Z,99877.88
2023-05-21T04:08:18.548Z,99882.81
2023-05-21T04:09:21.424Z,99870.28
2023-05-21T04:10:24.065Z,99874.34
2023-05-21T04:11:26.791Z,99878.31
2023-05-21T04:12:29.461Z,99878.31
2023-05-21T04:13:32.174Z,99875.09
2023-05-21T04:14:34.968Z,99878.31
2023-05-21T04:15:39.283Z,99871.84
2023-05-21T04:16:44.597Z,99870.13
2023-05-21T04:17:47.473Z,99863.53
2023-05-21T04:18:50.294Z,99868.44
2023-05-21T04:19:52.999Z,99859.41
2023-05-21T04:20:55.718Z,99860.97
2023-05-21T04:22:01.565Z,99858.28
2023-05-21T04:23:04.189Z,99863.66
2023-05-21T04:24:07.004Z,99863.09
2023-05-21T04:25:10.113Z,99880.00
2023-05-21T04:26:13.289Z,99876.34
2023-05-21T04:27:17.245Z,99878.03
2023-05-21T04:28:20.674Z,99880.59
2023-05-21T04:29:23.455Z,99880.84
2023-05-21T04:30:26.262Z,99874.63
2023-05-21T04:31:28.993Z,99878.91
2023-05-21T04:32:33.845Z,99875.06
2023-05-21T04:33:36.657Z,99882.81
2023-05-21T04:34:40.241Z,99875.47
2023-05-21T04:35:45.068Z,99870.13
2023-05-21T04:36:47.858Z,99870.13
2023-05-21T04:37:51.021Z,99871.84
2023-05-21T04:38:53.913Z,99876.47
2023-05-21T04:39:56.619Z,99874.53
2023-05-21T04:40:59.372Z,99870.41
2023-05-21T04:42:03.621Z,99875.88
2023-05-21T04:43:06.285Z,99882.09
2023-05-21T04:44:09.489Z,99881.78
2023-05-21T04:45:12.435Z,99884.34
2023-05-21T04:46:15.416Z,99879.41
2023-05-21T04:47:21.735Z,99881.09
2023-05-21T04:48:27.334Z,99877.44
2023-05-21T04:49:30.577Z,99880.78
2023-05-21T04:50:34.240Z,99888.13
2023-05-21T04:51:38.389Z,99881.38
2023-05-21T04:52:41.140Z,99879.97
2023-05-21T04:53:43.846Z,99880.50
2023-05-21T04:54:46.480Z,99881.38
2023-05-21T04:55:49.157Z,99885.31
2023-05-21T04:56:51.876Z,99884.88
2023-05-21T04:57:54.531Z,99880.66
2023-05-21T04:58:59.264Z,99883.47
2023-05-21T05:00:04.302Z,99886.72
2023-05-21T05:01:07.068Z,99883.63
2023-05-21T05:02:14.861Z,99890.94
2023-05-21T05:03:17.650Z,99884.44
2023-05-21T05:04:20.357Z,99886.72
2023-05-21T05:05:23.078Z,99876.59
2023-05-21T05:06:26.482Z,99879.13
2023-05-21T05:07:29.150Z,99877.97
2023-05-21T05:08:32.121Z,99879.41
2023-05-21T05:09:34.787Z,99875.03
2023-05-21T05:10:37.431Z,99876.28
2023-05-21T05:11:40.123Z,99875.16
2023-05-21T05:12:42.845Z,99880.13
2023-05-21T05:13:45.543Z,99877.13
2023-05-21T05:14:48.241Z,99874.31
2023-05-21T05:15:52.533Z,99874.91
2023-05-21T05:17:00.385Z,99879.66
2023-05-21T05:18:03.138Z,99874.03
2023-05-21T05:19:05.891Z,99871.47
2023-05-21T05:20:10.493Z,99876.41
2023-05-21T05:21:13.181Z,99873.31
2023-05-21T05:22:15.880Z,99867.56
2023-05-21T05:23:18.660Z,99871.50
2023-05-21T05:24:21.475Z,99877.00
2023-05-21T05:25:24.206Z,99880.25
2023-05-21T05:26:27.321Z,99877.13
2023-05-21T05:27:29.958Z,99870.81
2023-05-21T05:28:32.655Z,99877.72
2023-05-21T05:29:35.302Z,99877.09
2023-05-21T05:30:38.143Z,99865.00
2023-05-21T05:31:40.879Z,99871.47
2023-05-21T05:32:43.594Z,99868.94
2023-05-21T05:33:46.692Z,99869.22
2023-05-21T05:34:49.374Z,99869.22
2023-05-21T05:35:52.084Z,99873.19
2023-05-21T05:36:54.723Z,99867.53
2023-05-21T05:37:57.553Z,99869.63
2023-05-21T05:39:00.283Z,99862.72
2023-05-21T05:40:02.961Z,99872.25
2023-05-21T05:41:05.750Z,99869.88
2023-05-21T05:42:08.437Z,99870.47
2023-05-21T05:43:11.325Z,99879.03
2023-05-21T05:44:14.022Z,99879.47
2023-05-21T05:45:16.732Z,99870.47
2023-05-21T05:46:19.443Z,99879.19
2023-05-21T05:47:22.741Z,99877.34
2023-05-21T05:48:25.771Z,99875.09
2023-05-21T05:49:28.426Z,99872.03
2023-05-21T05:50:31.063Z,99877.09
2023-05-21T05:51:33.828Z,99875.69
2023-05-21T05:52:36.451Z,99878.34
2023-05-21T05:53:39.066Z,99865.69
2023-05-21T05:54:41.790Z,99870.50
2023-05-21T05:55:44.485Z,99869.22
2023-05-21T05:56:47.104Z,99862.31
2023-05-21T05:57:49.762Z,99871.31
2023-05-21T05:58:52.395Z,99870.03
2023-05-21T05:59:55.061Z,99864.69
2023-05-21T06:00:57.960Z,99873.13
2023-05-21T06:02:01.768Z,99870.47
2023-05-21T06:03:04.724Z,99868.78
2023-05-21T06:04:07.423Z,99874.97
2023-05-21T06:05:10.640Z,99866.63
2023-05-21T06:06:13.653Z,99869.75
2023-05-21T06:07:16.557Z,99875.25
2023-05-21T06:08:19.228Z,99881.44
2023-05-21T06:09:22.674Z,99872.97
2023-05-21T06:10:25.361Z,99874.94
2023-05-21T06:11:28.041Z,99879.41
2023-05-21T06:12:30.668Z,99873.03
2023-05-21T06:13:33.409Z,99871.06
2023-05-21T06:14:36.089Z,99874.16
2023-05-21T06:15:39.896Z,99880.78
2023-05-21T06:16:42.680Z,99883.06
2023-05-21T06:17:45.498Z,99875.06
2023-05-21T06:18:48.217Z,99884.63
2023-05-21T06:19:51.066Z,99881.81
2023-05-21T06:20:53.765Z,99891.94
2023-05-21T06:21:56.415Z,99883.78
2023-05-21T06:22:59.075Z,99888.16
2023-05-21T06:24:01.722Z,99884.75
2023-05-21T06:25:04.973Z,99880.41
2023-05-21T06:26:07.744Z,99881.09
2023-05-21T06:27:10.436Z,99889.53
2023-05-21T06:28:13.230Z,99880.34
2023-05-21T06:29:17.610Z,99878.66
2023-05-21T06:30:20.358Z,99878.97
2023-05-21T06:31:23.106Z,99881.69
2023-05-21T06:32:26.325Z,99871.97
2023-05-21T06:33:29.040Z,99879.59
2023-05-21T06:34:31.720Z,99875.63
2023-05-21T06:35:37.782Z,99878.31
2023-05-21T06:36:40.648Z,99879.84
2023-05-21T06:37:43.734Z,99876.03
2023-05-21T06:38:47.367Z,99884.03
2023-05-21T06:39:49.801Z,99895.31
2023-05-21T06:40:52.461Z,99889.97
2023-05-21T06:41:55.198Z,99897.69
2023-05-21T06:42:58.505Z,99896.69
2023-05-21T06:44:01.183Z,99899.22
2023-05-21T06:45:03.931Z,99893.88
2023-05-21T06:46:06.650Z,99899.50
2023-05-21T06:47:09.401Z,99896.69
2023-05-21T06:48:13.063Z,99886.84
2023-05-21T06:49:15.973Z,99891.63
2023-05-21T06:50:18.807Z,99892.59
2023-05-21T06:51:21.899Z,99884.00
2023-05-21T06:52:24.696Z,99881.47
2023-05-21T06:53:27.337Z,99888.50
2023-05-21T06:54:30.050Z,99881.75
2023-05-21T06:55:32.672Z,99884.25
2023-05-21T06:56:35.346Z,99888.16
2023-05-21T06:57:39.433Z,99889.31
2023-05-21T06:58:42.112Z,99888.47
2023-05-21T06:59:45.141Z,99884.56
2023-05-21T07:00:48.141Z,99886.81
2023-05-21T07:01:50.811Z,99889.78
2023-05-21T07:02:53.763Z,99895.13
2023-05-21T07:03:56.433Z,99897.47
2023-05-21T07:04:59.063Z,99892.97
2023-05-21T07:06:01.758Z,99899.28
2023-05-21T07:07:05.186Z,99906.59
2023-05-21T07:08:08.624Z,99895.19
2023-05-21T07:09:12.509Z,99905.09
2023-05-21T07:10:15.203Z,99902.41
2023-05-21T07:11:17.829Z,99893.44
2023-05-21T07:12:20.487Z,99895.81
2023-05-21T07:13:23.219Z,99896.66
2023-05-21T07:14:29.037Z,99894.53
2023-05-21T07:15:31.682Z,99896.34
2023-05-21T07:16:34.402Z,99884.38
2023-05-21T07:17:38.059Z,99889.72
2023-05-21T07:18:40.395Z,99893.44
2023-05-21T07:19:42.707Z,99900.41
2023-05-21T07:20:45.084Z,99892.91
2023-05-21T07:21:47.902Z,99882.47
2023-05-21T07:22:50.538Z,99890.75
2023-05-21T07:23:53.218Z,99887.41
2023-05-21T07:24:56.266Z,99887.41
2023-05-21T07:25:58.901Z,99883.75
2023-05-21T07:27:04.631Z,99887.94
2023-05-21T07:28:11.547Z,99883.59
2023-05-21T07:29:14.281Z,99882.91
2023-05-21T07:30:17.245Z,99878.09
2023-05-21T07:31:19.937Z,99876.38
2023-05-21T07:32:22.798Z,99877.50
2023-05-21T07:33:25.472Z,99875.06
2023-05-21T07:34:28.156Z,99881.66
2023-05-21T07:35:30.820Z,99877.88
2023-05-21T07:36:34.262Z,99875.22
2023-05-21T07:37:37.018Z,99878.72
2023-05-21T07:38:40.688Z,99873.38
2023-05-21T07:39:43.036Z,99880.09
2023-05-21T07:40:45.340Z,99876.31
2023-05-21T07:41:47.689Z,99883.03
2023-05-21T07:42:50.025Z,99882.44
2023-05-21T07:43:52.343Z,99880.75
2023-05-21T07:44:54.688Z,99884.00
2023-05-21T07:45:57.059Z,99886.09
2023-05-21T07:46:59.536Z,99883.72
2023-05-21T07:48:02.297Z,99886.50
2023-05-21T07:49:05.047Z,99890.31
2023-05-21T07:50:08.071Z,99888.09
2023-05-21T07:51:12.093Z,99887.97
2023-05-21T07:52:14.733Z,99885.63
2023-05-21T07:53:17.460Z,99887.81
2023-05-21T07:54:20.256Z,99886.97
2023-05-21T07:55:22.992Z,99890.00
2023-05-21T07:56:25.729Z,99888.19
2023-05-21T07:57:28.717Z,99894.84
2023-05-21T07:58:31.602Z,99892.53
2023-05-21T07:59:34.289Z,99890.72
2023-05-21T08:00:45.487Z,99889.75
2023-05-21T08:01:48.228Z,99890.09
2023-05-21T08:02:51.030Z,99892.03
2023-05-21T08:03:53.909Z,99890.72
2023-05-21T08:04:56.781Z,99894.50
2023-05-21T08:05:59.505Z,99889.88
2023-05-21T08:07:02.372Z,99896.06
2023-05-21T08:08:06.037Z,99894.91
2023-05-21T08:09:08.786Z,99891.09
2023-05-21T08:10:11.857Z,99893.66
2023-05-21T08:11:14.600Z,99891.09
2023-05-21T08:12:17.499Z,99892.91
2023-05-21T08:13:20.351Z,99893.78
2023-05-21T08:14:22.990Z,99893.06
2023-05-21T08:15:25.635Z,99898.53
2023-05-21T08:16:30.206Z,99894.31
2023-05-21T08:17:32.862Z,99902.06
2023-05-21T08:18:35.500Z,99891.38
2023-05-21T08:19:38.283Z,99898.66
2023-05-21T08:20:41.904Z,99899.38
2023-05-21T08:21:44.670Z,99900.94
2023-05-21T08:22:47.370Z,99895.59
2023-05-21T08:23:50.015Z,99904.59
2023-05-21T08:24:53.121Z,99891.38
2023-05-21T08:25:55.855Z,99900.34
2023-05-21T08:26:58.559Z,99897.16
2023-05-21T08:28:01.280Z,99903.81
2023-05-21T08:29:03.963Z,99902.00
2023-05-21T08:30:07.596Z,99908.25
2023-05-21T08:31:10.304Z,99911.28
2023-05-21T08:32:13.020Z,99910.19
2023-05-21T08:33:15.801Z,99919.28
2023-05-21T08:34:21.514Z,99918.91
2023-05-21T08:35:24.156Z,99917.34
2023-05-21T08:36:26.822Z,99913.28
2023-05-21T08:37:29.883Z,99911.34
2023-05-21T08:38:32.879Z,99905.75
2023-05-21T08:39:35.592Z,99909.28
2023-05-21T08:40:38.399Z,99907.72
2023-05-21T08:41:42.152Z,99908.44
2023-05-21T08:42:49.681Z,99911.22
2023-05-21T08:44:00.400Z,99913.03
2023-05-21T08:45:07.256Z,99900.81
2023-05-21T08:46:10.560Z,99898.13
2023-05-21T08:47:17.335Z,99910.75
2023-05-21T08:48:22.959Z,99910.91
2023-05-21T08:49:31.762Z,99900.06
2023-05-21T08:50:34.409Z,99905.56
2023-05-21T08:51:37.250Z,99904.25
2023-05-21T08:52:39.972Z,99914.25
2023-05-21T08:53:42.986Z,99909.28
2023-05-21T08:54:46.938Z,99910.56
2023-05-21T08:55:52.279Z,99916.16
2023-05-21T08:56:57.291Z,99913.97
2023-05-21T08:57:59.984Z,99913.22
2023-05-21T08:59:03.579Z,99909.16
2023-05-21T09:00:07.686Z,99907.47
2023-05-21T09:01:11.759Z,99912.25
2023-05-21T09:02:14.850Z,99908.31
2023-05-21T09:03:17.846Z,99901.75
2023-05-21T09:04:22.025Z,99902.50
2023-05-21T09:05:26.208Z,99907.34
2023-05-21T09:06:29.519Z,99908.91
2023-05-21T09:07:35.129Z,99918.84
2023-05-21T09:08:42.882Z,99906.38
2023-05-21T09:09:55.524Z,99907.94
2023-05-21T09:10:58.236Z,99910.72
2023-05-21T09:12:01.414Z,99907.22
2023-05-21T09:13:05.043Z,99915.47
2023-05-21T09:14:07.845Z,99911.69
2023-05-21T09:15:11.127Z,99917.16
2023-05-21T09:16:13.787Z,99913.03
2023-05-21T09:17:16.970Z,99914.72
2023-05-21T09:18:19.630Z,99908.44
2023-05-21T09:19:23.027Z,99916.16
2023-05-21T09:20:27.399Z,99914.63
2023-05-21T09:21:31.956Z,99923.69
2023-05-21T09:22:34.778Z,99910.63
2023-05-21T09:23:37.420Z,99918.13
2023-05-21T09:24:40.165Z,99913.78
2023-05-21T09:25:46.304Z,99917.41
2023-05-21T09:26:49.053Z,99912.31
2023-05-21T09:27:52.199Z,99918.97
2023-05-21T09:29:00.024Z,99919.69
2023-05-21T09:30:09.872Z,99918.84
2023-05-21T09:31:12.260Z,99916.19
2023-05-21T09:32:14.584Z,99918.72
2023-05-21T09:33:27.532Z,99926.13
2023-05-21T09:34:30.251Z,99921.28
2023-05-21T09:35:35.640Z,99925.63
2023-05-21T09:36:39.175Z,99924.69
2023-05-21T09:37:46.727Z,99919.47
2023-05-21T09:38:50.176Z,99926.13
2023-05-21T09:39:52.931Z,99924.19
2023-05-21T09:40:58.835Z,99927.69
2023-05-21T09:42:01.769Z,99923.69
2023-05-21T09:43:05.724Z,99924.16
2023-05-21T09:44:08.600Z,99920.19
2023-05-21T09:45:12.180Z,99923.09
2023-05-21T09:46:14.655Z,99928.06
2023-05-21T09:47:20.174Z,99930.00
2023-05-21T09:48:42.542Z,99936.91
2023-05-21T09:49:45.303Z,99933.88
2023-05-21T09:50:47.972Z,99927.69
2023-05-21T09:51:50.880Z,99943.81
2023-05-21T09:52:53.842Z,99942.38
2023-05-21T09:53:59.555Z,99950.84
2023-05-21T09:55:03.568Z,99947.94
2023-05-21T09:56:06.431Z,99952.28
2023-05-21T09:57:09.182Z,99956.53
2023-05-21T09:58:11.851Z,99955.31
2023-05-21T09:59:14.488Z,99955.44
2023-05-21T10:00:29.254Z,99963.81
2023-05-21T10:01:36.518Z,99972.41
2023-05-21T10:02:45.341Z,99975.44
2023-05-21T10:03:55.695Z,99970.72
2023-05-21T10:04:58.892Z,99977.25
2023-05-21T10:06:01.836Z,99986.97
2023-05-21T10:07:04.703Z,99981.50
2023-05-21T10:08:09.897Z,99977.25
2023-05-21T10:09:13.782Z,99986.00
2023-05-21T10:10:17.281Z,99979.81
2023-05-21T10:11:23.678Z,99985.38
2023-05-21T10:12:29.252Z,99979.19
2023-05-21T10:13:34.919Z,99980.16
2023-05-21T10:14:37.893Z,99981.88
2023-05-21T10:15:45.665Z,99985.63
2023-05-21T10:16:49.051Z,99988.41
2023-05-21T10:17:54.063Z,99998.84
2023-05-21T10:18:58.618Z,100002.22
2023-05-21T10:20:02.928Z,99990.59
2023-05-21T10:21:07.713Z,99996.66
2023-05-21T10:22:11.076Z,99996.28
2023-05-21T10:23:14.753Z,99994.19
2023-05-21T10:24:17.799Z,99990.81
2023-05-21T10:25:21.643Z,100005.38
2023-05-21T10:26:28.782Z,100012.88
2023-05-21T10:27:33.125Z,100011.78
2023-05-21T10:28:37.022Z,100021.34
2023-05-21T10:29:40.910Z,100014.19
2023-05-21T10:30:44.047Z,100007.16
2023-05-21T10:31:50.256Z,100014.44
2023-05-21T10:32:53.835Z,100012.63
2023-05-21T10:33:56.576Z,100010.81
2023-05-21T10:35:01.711Z,100010.19
2023-05-21T10:36:04.936Z,100006.09
2023-05-21T10:37:10.485Z,100018.31
2023-05-21T10:38:15.180Z,100023.53
2023-05-21T10:39:20.422Z,100019.53
2023-05-21T10:40:23.121Z,100033.84
2023-05-21T10:41:28.738Z,100025.72
2023-05-21T10:42:34.322Z,100025.97
2023-05-21T10:43:44.846Z,100027.03
2023-05-21T10:44:59.017Z,100023.53
2023-05-21T10:46:32.480Z,100028.03
2023-05-21T10:48:07.391Z,100034.19
2023-05-21T10:49:12.728Z,100034.31
2023-05-21T10:50:33.212Z,100036.97
2023-05-21T10:52:00.790Z,100042.47
2023-05-21T10:53:17.512Z,100047.06
2023-05-21T10:54:20.099Z,100052.13
2023-05-21T10:55:25.700Z,100059.91
2023-05-21T10:56:54.298Z,100053.34
2023-05-21T10:58:03.025Z,100047.78
2023-05-21T10:59:40.682Z,100062.22
2023-05-21T11:00:44.519Z,100050.44
2023-05-21T11:01:47.452Z,100055.78
2023-05-21T11:02:53.391Z,100050.44
2023-05-21T11:03:56.581Z,100047.91
2023-05-21T11:05:00.887Z,100054.09
2023-05-21T11:06:06.875Z,100055.78
2023-05-21T11:07:09.770Z,100055.66
2023-05-21T11:08:32.144Z,100049.34
2023-05-21T11:09:34.539Z,100052.16
2023-05-21T11:10:40.293Z,100054.69
2023-05-21T11:11:45.432Z,100063.66
2023-05-21T11:13:13.909Z,100056.38
2023-05-21T11:14:36.243Z,100053.59
2023-05-21T11:15:57.054Z,100058.69
2023-05-21T11:17:00.756Z,100061.56
2023-05-21T11:18:03.562Z,100057.81
2023-05-21T11:19:06.404Z,100059.63
2023-05-21T11:20:17.329Z,100054.41
2023-05-21T11:21:23.059Z,100061.34
2023-05-21T11:22:28.215Z,100059.63
2023-05-21T11:23:52.363Z,100060.59
2023-05-21T11:24:56.626Z,100065.22
2023-05-21T11:26:02.840Z,100046.66
2023-05-21T11:27:07.365Z,100045.56
2023-05-21T11:28:10.133Z,100045.31
2023-05-21T11:29:12.961Z,100045.22
2023-05-21T11:30:17.952Z,100047.88
2023-05-21T11:31:27.477Z,100049.56
2023-05-21T11:32:30.391Z,100051.28
2023-05-21T11:33:34.531Z,100045.94
2023-05-21T11:34:46.401Z,100060.97
2023-05-21T11:35:48.960Z,100059.75
2023-05-21T11:37:17.656Z,100065.06
2023-05-21T11:38:20.381Z,100071.72
2023-05-21T11:39:26.412Z,100082.75
2023-05-21T11:40:31.094Z,100074.88
2023-05-21T11:42:02.432Z,100079.84
2023-05-21T11:43:06.866Z,100075.56
2023-05-21T11:44:09.849Z,100074.59
2023-05-21T11:45:12.563Z,100069.13
2023-05-21T11:46:15.474Z,100072.00
2023-05-21T11:47:21.659Z,100070.66
2023-05-21T11:48:29.407Z,100073.06
2023-05-21T11:49:33.533Z,100070.38
2023-05-21T11:50:37.626Z,100082.38
2023-05-21T11:51:41.548Z,100078.50
2023-05-21T11:52:45.854Z,100079.97
2023-05-21T11:53:49.474Z,100077.66
2023-05-21T11:54:58.646Z,100083.50
2023-05-21T11:56:03.223Z,100084.22
2023-05-21T11:57:09.716Z,100083.25
2023-05-21T11:58:14.960Z,100087.59
2023-05-21T11:59:18.830Z,100096.72
2023-05-21T12:00:22.185Z,100094.66
2023-05-21T12:01:28.228Z,100095.28
2023-05-21T12:02:34.232Z,100098.78
2023-05-21T12:03:37.075Z,100108.59
2023-05-21T12:04:39.889Z,100109.06
2023-05-21T12:05:47.265Z,100112.84
2023-05-21T12:06:51.128Z,100116.00
2023-05-21T12:07:55.038Z,100118.38
2023-05-21T12:08:58.738Z,100119.50
2023-05-21T12:10:01.677Z,100118.66
2023-05-21T12:11:04.447Z,100131.16
2023-05-21T12:12:08.988Z,100138.34
2023-05-21T12:13:11.669Z,100144.88
2023-05-21T12:14:15.288Z,100142.69
2023-05-21T12:15:18.458Z,100137.34
2023-05-21T12:16:21.454Z,100132.00
2023-05-21T12:17:26.315Z,100138.91
2023-05-21T12:18:29.064Z,100138.53
2023-05-21T12:19:36.300Z,100137.31
2023-05-21T12:20:39.781Z,100141.53
2023-05-21T12:21:43.122Z,100134.81
2023-05-21T12:22:45.977Z,100145.50
2023-05-21T12:23:48.620Z,100145.38
2023-05-21T12:24:51.957Z,100139.19
2023-05-21T12:25:55.146Z,100145.13
2023-05-21T12:27:02.347Z,100151.31
2023-05-21T12:28:05.947Z,100147.69
2023-05-21T12:29:08.480Z,100138.69
2023-05-21T12:30:11.571Z,100145.78
2023-05-21T12:31:17.070Z,100146.13